Time;durP1;ratioP1;P1;durP2;ratioP2;P2;SDS_P1;SDS_P2;PMS_P1;PMS_P2;Temp;Humidity;BMP_temperature;BMP_pressure;BME280_temperature;BME280_humidity;BME280_pressure;Samples;Min_cycle;Max_cycle;Signal;HPM_P1;HPM_P2
2021/09/14 00:02:23;;;;;;;;;;;;;;;14.32;91.77;101629.59;5049188;28;19925;-51
2021/09/14 00:04:49;;;;;;;;;;;;;;;14.35;92.17;101641.78;5047520;28;19932;-53
2021/09/14 00:07:16;;;;;;;;;;;;;;;14.29;92.42;101640.41;5049282;28;19936;-53
2021/09/14 00:09:43;;;;;;;;;;;;;;;14.26;92.61;101632.69;5049338;28;19967;-53
2021/09/14 00:12:09;;;;;;;;;;;;;;;14.24;92.30;101631.94;5047246;28;19932;-52
2021/09/14 00:14:36;;;;;;;;;;;;;;;14.27;92.48;101633.53;5049737;28;19965;-54
2021/09/14 00:17:03;;;;;;;;;;;;;;;14.21;92.54;101640.09;5048453;28;20314;-54
2021/09/14 00:19:29;;;;;;;;;;;;;;;14.26;92.75;101632.69;5047854;28;19924;-53
2021/09/14 00:21:56;;;;;;;;;;;;;;;14.32;91.93;101626.97;5049634;28;19983;-46
2021/09/14 00:24:23;;;;;;;;;;;;;;;14.33;92.21;101628.66;5049399;28;19925;-52
2021/09/14 00:26:49;;;;;;;;;;;;;;;14.27;92.14;101620.28;5064186;28;20357;-53
2021/09/14 00:29:16;;;;;;;;;;;;;;;14.25;91.87;101624.81;5048494;28;20288;-48
2021/09/14 00:31:42;;;;;;;;;;;;;;;14.24;92.47;101626.63;5049666;28;19978;-45
2021/09/14 00:34:09;;;;;;;;;;;;;;;14.21;92.45;101629.50;5048932;28;19951;-46
2021/09/14 00:36:36;;;;;;;;;;;;;;;14.20;92.11;101625.16;5048641;28;19928;-45
2021/09/14 00:39:03;;;;;;;;;;;;;;;14.12;92.59;101632.75;5053319;28;19928;-47
2021/09/14 00:41:29;;;;;;;;;;;;;;;14.16;92.62;101621.03;5052702;28;19932;-51
2021/09/14 00:43:57;;;;;;;;;;;;;;;14.15;92.33;101621.97;5051796;28;20196;-52
2021/09/14 00:46:23;;;;;;;;;;;;;;;14.09;93.00;101625.88;5052955;28;19925;-53
2021/09/14 00:48:50;;;;;;;;;;;;;;;14.06;92.82;101625.22;5052485;28;20441;-52
2021/09/14 00:51:17;;;;;;;;;;;;;;;14.02;93.13;101628.09;5052747;28;19925;-53
2021/09/14 00:53:47;;;;;;;;;;;;;;;14.06;92.98;101626.09;5053175;28;19932;-50
2021/09/14 00:56:14;;;;;;;;;;;;;;;14.00;93.08;101619.44;5066732;28;19940;-50
2021/09/14 00:58:41;;;;;;;;;;;;;;;14.05;92.83;101628.84;5051724;28;19929;-53
2021/09/14 01:01:07;;;;;;;;;;;;;;;14.06;92.73;101625.22;5053231;28;19925;-49
2021/09/14 01:03:35;;;;;;;;;;;;;;;14.05;92.68;101620.91;5052284;28;20330;-48
2021/09/14 01:06:02;;;;;;;;;;;;;;;13.98;92.91;101623.13;5053050;28;19925;-51
2021/09/14 01:08:30;;;;;;;;;;;;;;;13.88;93.99;101607.03;5052085;28;19928;-50
2021/09/14 01:10:57;;;;;;;;;;;;;;;13.82;94.30;101612.72;5052531;28;20380;-49
2021/09/14 01:13:23;;;;;;;;;;;;;;;13.84;94.31;101611.66;5049863;28;20347;-53
2021/09/14 01:15:50;;;;;;;;;;;;;;;13.87;94.06;101618.56;5068063;28;19928;-51
2021/09/14 01:18:17;;;;;;;;;;;;;;;13.82;94.17;101610.06;5052397;28;19971;-50
2021/09/14 01:20:43;;;;;;;;;;;;;;;13.79;94.57;101613.75;5052236;28;19960;-43
2021/09/14 01:23:10;;;;;;;;;;;;;;;13.76;94.95;101618.44;5052331;28;19959;-43
2021/09/14 01:25:37;;;;;;;;;;;;;;;13.77;94.74;101612.16;5051749;28;20379;-44
2021/09/14 01:28:05;;;;;;;;;;;;;;;13.81;94.39;101608.38;5050681;28;19978;-42
2021/09/14 01:30:32;;;;;;;;;;;;;;;13.74;94.83;101607.09;5067486;28;20291;-44
2021/09/14 01:32:58;;;;;;;;;;;;;;;13.75;94.78;101606.16;5052473;28;20371;-43
2021/09/14 01:35:26;;;;;;;;;;;;;;;13.75;94.50;101596.41;5051874;28;19949;-48
2021/09/14 01:37:53;;;;;;;;;;;;;;;13.77;94.34;101605.09;5052232;28;19944;-46
2021/09/14 01:40:19;;;;;;;;;;;;;;;13.77;94.32;101613.03;5051801;28;19924;-45
2021/09/14 01:42:46;;;;;;;;;;;;;;;13.79;93.76;101607.63;5050628;28;20324;-41
2021/09/14 01:45:13;;;;;;;;;;;;;;;13.81;94.02;101611.00;5067434;28;19925;-44
2021/09/14 01:47:40;;;;;;;;;;;;;;;13.79;93.81;101608.47;5050747;28;19971;-46
2021/09/14 01:50:08;;;;;;;;;;;;;;;13.74;94.31;101610.56;5050290;28;19978;-41
2021/09/14 01:52:34;;;;;;;;;;;;;;;13.75;94.18;101612.28;5051767;28;19925;-46
2021/09/14 01:55:02;;;;;;;;;;;;;;;13.75;93.88;101611.44;5051749;28;19987;-46
2021/09/14 01:57:33;;;;;;;;;;;;;;;13.73;93.98;101608.91;5049129;28;19929;-43
2021/09/14 02:00:02;;;;;;;;;;;;;;;13.66;94.54;101608.47;5051955;28;19932;-43
2021/09/14 02:05:31;;;;;;;;;;;;;;;13.65;94.34;101612.03;5051141;28;19925;-45
2021/09/14 02:40:53;;;;;;;;;;;;;;;13.45;94.89;101568.41;5050724;28;19933;-42
2021/09/14 02:43:28;;;;;;;;;;;;;;;13.34;95.32;101563.81;5061567;28;19931;-44
2021/09/14 02:59:23;;;;;;;;;;;;;;;13.32;95.55;101562.22;5048223;28;19979;-44
2021/09/14 03:01:49;;;;;;;;;;;;;;;13.33;95.29;101562.13;5065312;28;19928;-42
2021/09/14 03:04:16;;;;;;;;;;;;;;;13.26;95.47;101563.47;5050155;28;19925;-41
2021/09/14 03:06:43;;;;;;;;;;;;;;;13.39;95.07;101562.69;5050993;28;19939;-42
2021/09/14 03:09:10;;;;;;;;;;;;;;;13.33;94.68;101562.13;5050514;28;19924;-42
2021/09/14 03:11:36;;;;;;;;;;;;;;;13.34;95.36;101557.69;5049650;28;19931;-42
2021/09/14 03:14:03;;;;;;;;;;;;;;;13.30;95.39;101558.84;5048878;28;19936;-42
2021/09/14 03:16:30;;;;;;;;;;;;;;;13.30;95.35;101562.31;5049704;28;19936;-43
2021/09/14 03:18:56;;;;;;;;;;;;;;;13.33;95.17;101562.13;5049819;28;19970;-41
2021/09/14 03:21:23;;;;;;;;;;;;;;;13.31;94.98;101556.09;5050122;28;20279;-44
2021/09/14 03:23:49;;;;;;;;;;;;;;;13.33;94.57;101554.22;5050204;28;19925;-41
2021/09/14 03:26:16;;;;;;;;;;;;;;;13.29;95.09;101547.44;5048553;28;19951;-42
2021/09/14 03:28:43;;;;;;;;;;;;;;;13.28;94.89;101544.88;5049131;28;20047;-43
2021/09/14 03:31:10;;;;;;;;;;;;;;;13.21;95.75;101551.50;5065479;28;19979;-45
2021/09/14 03:33:36;;;;;;;;;;;;;;;13.24;95.53;101544.25;5065296;28;19932;-42
2021/09/14 03:36:04;;;;;;;;;;;;;;;13.10;95.95;101541.63;5050142;28;19944;-42
2021/09/14 03:38:30;;;;;;;;;;;;;;;13.09;96.13;101535.53;5049908;28;19929;-41
2021/09/14 03:40:57;;;;;;;;;;;;;;;13.08;96.07;101533.81;5049609;28;19924;-41
2021/09/14 03:43:24;;;;;;;;;;;;;;;13.05;96.36;101528.75;5048514;28;19924;-44
2021/09/14 03:45:50;;;;;;;;;;;;;;;13.09;96.20;101535.53;5050377;28;20278;-42
2021/09/14 03:48:17;;;;;;;;;;;;;;;13.04;96.25;101526.22;5050005;28;19925;-46
2021/09/14 03:50:44;;;;;;;;;;;;;;;12.98;96.67;101533.56;5049906;28;20273;-43
2021/09/14 03:53:11;;;;;;;;;;;;;;;13.03;96.46;101525.34;5049983;28;20635;-42
2021/09/14 03:55:37;;;;;;;;;;;;;;;13.02;96.38;101523.69;5064837;28;19933;-46
2021/09/14 03:58:04;;;;;;;;;;;;;;;13.00;96.81;101520.28;5048895;28;20391;-44
2021/09/14 04:00:31;;;;;;;;;;;;;;;13.08;96.17;101511.88;5049122;28;19925;-44
2021/09/14 04:03:10;;;;;;;;;;;;;;;13.08;95.93;101512.69;5048722;28;20387;-45
2021/09/14 04:10:49;;;;;;;;;;;;;;;12.92;96.74;101502.28;5049381;28;19933;-47
2021/09/14 04:13:16;;;;;;;;;;;;;;;12.93;96.31;101503.97;5066703;28;20779;-42
2021/09/14 04:15:42;;;;;;;;;;;;;;;12.91;96.69;101502.38;5053556;28;19929;-44
2021/09/14 04:18:10;;;;;;;;;;;;;;;12.84;96.80;101501.91;5053612;28;19929;-44
2021/09/14 04:20:37;;;;;;;;;;;;;;;12.89;97.29;101505.13;5068211;28;19925;-42
2021/09/14 04:23:04;;;;;;;;;;;;;;;12.99;95.93;101500.94;5052596;28;20291;-46
2021/09/14 04:25:30;;;;;;;;;;;;;;;12.92;96.23;101489.06;5053562;28;19978;-47
2021/09/14 04:27:57;;;;;;;;;;;;;;;12.89;96.36;101486.63;5052411;28;20383;-43
2021/09/14 04:30:24;;;;;;;;;;;;;;;12.89;96.38;101485.81;5053008;28;19924;-43
2021/09/14 04:32:50;;;;;;;;;;;;;;;12.85;96.58;101493.06;5052429;28;20403;-43
2021/09/14 04:35:17;;;;;;;;;;;;;;;12.75;97.33;101484.91;5052566;28;19925;-41
2021/09/14 04:37:44;;;;;;;;;;;;;;;12.80;96.80;101489.88;5052738;28;19947;-46
2021/09/14 04:40:11;;;;;;;;;;;;;;;12.71;97.24;101488.69;5052354;28;19974;-42
2021/09/14 04:42:37;;;;;;;;;;;;;;;12.73;97.40;101488.56;5066725;28;20007;-41
2021/09/14 04:45:04;;;;;;;;;;;;;;;12.75;97.30;101486.66;5052968;28;20003;-43
2021/09/14 04:47:31;;;;;;;;;;;;;;;12.82;96.82;101491.47;5068190;28;20462;-41
2021/09/14 04:49:58;;;;;;;;;;;;;;;12.78;96.57;101489.13;5052745;28;19925;-41
2021/09/14 04:52:24;;;;;;;;;;;;;;;12.79;96.63;101490.84;5053012;28;19932;-43
2021/09/14 04:54:51;;;;;;;;;;;;;;;12.77;97.20;101495.34;5051396;28;19929;-44
2021/09/14 04:57:17;;;;;;;;;;;;;;;12.75;96.80;101505.16;5051271;28;20388;-43
2021/09/14 04:59:44;;;;;;;;;;;;;;;12.75;96.84;101505.16;5050561;28;20311;-46
2021/09/14 05:02:11;;;;;;;;;;;;;;;12.78;96.88;101510.25;5052730;28;19925;-43
2021/09/14 05:04:37;;;;;;;;;;;;;;;12.71;96.94;101509.78;5051156;28;19928;-42
2021/09/14 05:07:04;;;;;;;;;;;;;;;12.72;97.08;101500.06;5052955;28;19924;-43
2021/09/14 05:09:31;;;;;;;;;;;;;;;12.74;96.82;101506.94;5052055;28;20173;-41
2021/09/14 05:11:58;;;;;;;;;;;;;;;12.72;97.09;101500.06;5051155;28;19929;-43
2021/09/14 05:14:24;;;;;;;;;;;;;;;12.70;97.07;101504.63;5051478;28;19925;-46
2021/09/14 05:16:51;;;;;;;;;;;;;;;12.71;97.05;101503.66;5068131;28;19929;-51
2021/09/14 05:19:29;;;;;;;;;;;;;;;12.74;96.86;101508.75;5051875;28;19925;-49
2021/09/14 05:21:58;;;;;;;;;;;;;;;12.72;96.48;101515.91;5052624;28;19925;-48
2021/09/14 05:24:28;;;;;;;;;;;;;;;12.71;96.71;101514.22;5065829;28;19925;-50
2021/09/14 05:26:55;;;;;;;;;;;;;;;12.73;97.00;101512.34;5051938;28;19929;-49
2021/09/14 05:29:22;;;;;;;;;;;;;;;12.79;96.58;101515.44;5050941;28;19924;-51
2021/09/14 05:31:48;;;;;;;;;;;;;;;12.82;96.21;101512.59;5067612;28;19928;-49
2021/09/14 05:34:15;;;;;;;;;;;;;;;12.82;95.99;101514.38;5066598;28;19924;-48
2021/09/14 05:36:46;;;;;;;;;;;;;;;12.77;96.50;101513.81;5052001;28;19928;-47
2021/09/14 05:39:13;;;;;;;;;;;;;;;12.76;96.87;101509.50;5051899;28;19933;-49
2021/09/14 05:41:40;;;;;;;;;;;;;;;12.77;96.79;101511.19;5049761;28;20287;-51
2021/09/14 05:44:07;;;;;;;;;;;;;;;12.74;96.83;101506.13;5051321;28;19936;-43
2021/09/14 05:46:33;;;;;;;;;;;;;;;12.75;96.76;101507.78;5051240;28;19936;-43
2021/09/14 05:49:00;;;;;;;;;;;;;;;12.75;96.55;101500.72;5067247;28;20408;-43
2021/09/14 05:51:27;;;;;;;;;;;;;;;12.67;97.44;101497.75;5050456;28;19932;-42
2021/09/14 05:53:53;;;;;;;;;;;;;;;12.75;97.11;101502.50;5052144;28;19978;-41
2021/09/14 05:56:20;;;;;;;;;;;;;;;12.83;96.87;101498.44;5051442;28;19925;-53
2021/09/14 05:58:46;;;;;;;;;;;;;;;12.79;97.33;101502.22;5050502;28;19936;-48
2021/09/14 06:01:13;;;;;;;;;;;;;;;12.82;96.91;101493.28;5051143;28;19928;-48
2021/09/14 06:03:40;;;;;;;;;;;;;;;12.89;97.33;101494.56;5051107;28;19932;-50
2021/09/14 06:06:07;;;;;;;;;;;;;;;12.93;97.44;101490.78;5050794;28;19929;-48
2021/09/14 06:08:34;;;;;;;;;;;;;;;12.99;96.87;101487.75;5051463;28;19925;-48
2021/09/14 06:11:01;;;;;;;;;;;;;;;13.02;96.66;101486.72;5051469;28;20003;-48
2021/09/14 06:13:27;;;;;;;;;;;;;;;12.99;96.92;101498.31;5050071;28;19964;-50
2021/09/14 06:15:54;;;;;;;;;;;;;;;12.96;97.01;101498.50;5051740;28;20406;-48
2021/09/14 06:18:21;;;;;;;;;;;;;;;13.02;96.52;101497.28;5051206;28;19936;-52
2021/09/14 06:20:48;;;;;;;;;;;;;;;13.08;95.64;101496.03;5050904;28;19966;-47
2021/09/14 06:23:15;;;;;;;;;;;;;;;13.09;96.35;101495.03;5051450;28;19960;-48
2021/09/14 06:25:41;;;;;;;;;;;;;;;13.10;96.42;101499.38;5066428;28;19937;-51
2021/09/14 06:28:08;;;;;;;;;;;;;;;13.12;96.07;101498.34;5049714;28;20272;-47
2021/09/14 06:30:34;;;;;;;;;;;;;;;13.16;95.50;101493.72;5050586;28;20399;-48
2021/09/14 06:33:01;;;;;;;;;;;;;;;13.25;94.88;101493.13;5051156;28;20574;-46
2021/09/14 06:35:28;;;;;;;;;;;;;;;13.29;94.75;101501.66;5050212;28;20302;-49
2021/09/14 06:37:54;;;;;;;;;;;;;;;13.31;94.82;101494.50;5051479;28;19936;-53
2021/09/14 06:40:21;;;;;;;;;;;;;;;13.37;94.30;101491.47;5050633;28;19979;-51
2021/09/14 06:42:49;;;;;;;;;;;;;;;13.39;93.97;101489.59;5048808;28;20693;-49
2021/09/14 06:45:16;;;;;;;;;;;;;;;13.42;94.42;101484.09;5050997;28;19925;-49
2021/09/14 06:47:43;;;;;;;;;;;;;;;13.48;94.06;101488.09;5051250;28;19948;-53
2021/09/14 06:50:10;;;;;;;;;;;;;;;13.50;93.59;101488.88;5050753;28;19947;-53
2021/09/14 06:52:40;;;;;;;;;;;;;;;13.46;93.49;101476.81;5066349;28;20046;-52
2021/09/14 06:55:06;;;;;;;;;;;;;;;13.53;93.47;101486.84;5049977;28;19978;-52
2021/09/14 06:57:33;;;;;;;;;;;;;;;13.56;93.65;101479.69;5048748;28;20349;-52
2021/09/14 07:00:00;;;;;;;;;;;;;;;13.59;93.65;101479.47;5050528;28;19925;-50
2021/09/14 07:02:26;;;;;;;;;;;;;;;13.60;93.50;101481.16;5049914;28;20391;-49
2021/09/14 07:04:54;;;;;;;;;;;;;;;13.67;93.37;101493.00;5050747;28;19975;-49
2021/09/14 07:07:20;;;;;;;;;;;;;;;13.60;93.43;101489.91;5050289;28;19924;-50
2021/09/14 07:09:47;;;;;;;;;;;;;;;13.71;93.39;101488.34;5050404;28;20007;-51
2021/09/14 07:12:13;;;;;;;;;;;;;;;13.81;93.49;101479.69;5049021;28;19933;-49
2021/09/14 07:14:40;;;;;;;;;;;;;;;13.84;92.66;101494.50;5050416;28;19970;-50
2021/09/14 07:17:09;;;;;;;;;;;;;;;13.91;92.66;101490.47;5050570;28;19928;-48
2021/09/14 07:19:36;;;;;;;;;;;;;;;13.90;92.82;101486.13;5049757;28;20388;-49
2021/09/14 07:22:03;;;;;;;;;;;;;;;14.03;92.06;101484.34;5049644;28;19929;-49
2021/09/14 07:24:29;;;;;;;;;;;;;;;14.00;91.71;101473.97;5049956;28;20669;-48
2021/09/14 07:26:56;;;;;;;;;;;;;;;14.11;91.39;101481.16;5048212;28;19928;-49
2021/09/14 07:29:23;;;;;;;;;;;;;;;14.16;91.10;101483.47;5049297;28;19994;-50
2021/09/14 07:31:50;;;;;;;;;;;;;;;14.19;90.96;101477.97;5050348;28;19971;-53
2021/09/14 07:34:17;;;;;;;;;;;;;;;14.29;90.80;101484.31;5049607;28;19928;-50
2021/09/14 07:36:44;;;;;;;;;;;;;;;14.43;90.88;101471.91;5048684;28;19925;-50
2021/09/14 07:39:10;;;;;;;;;;;;;;;14.57;90.40;101460.31;5050139;28;19925;-49
2021/09/14 07:41:37;;;;;;;;;;;;;;;14.72;90.19;101471.63;5048133;28;20075;-53
2021/09/14 07:44:04;;;;;;;;;;;;;;;14.66;89.30;101470.28;5049300;28;19935;-51
2021/09/14 07:46:30;;;;;;;;;;;;;;;14.68;88.87;101469.22;5049613;28;19925;-51
2021/09/14 07:48:57;;;;;;;;;;;;;;;14.70;89.95;101462.00;5048468;28;19932;-51
2021/09/14 07:51:24;;;;;;;;;;;;;;;14.91;89.30;101463.19;5049235;28;19929;-47
2021/09/14 07:53:51;;;;;;;;;;;;;;;15.10;89.49;101468.78;5065330;28;20414;-50
2021/09/14 07:56:18;;;;;;;;;;;;;;;15.02;87.67;101468.53;5049045;28;19990;-47
2021/09/14 07:58:44;;;;;;;;;;;;;;;15.13;87.25;101462.44;5048821;28;19929;-52
2021/09/14 08:01:11;;;;;;;;;;;;;;;15.21;86.94;101449.44;5049551;28;20497;-53
2021/09/14 08:03:38;;;;;;;;;;;;;;;15.45;86.50;101457.34;5048505;28;19971;-52
2021/09/14 08:06:05;;;;;;;;;;;;;;;15.57;86.32;101462.66;5049958;28;19929;-52
2021/09/14 08:08:31;;;;;;;;;;;;;;;15.80;86.65;101455.63;5049533;28;20457;-53
2021/09/14 08:10:58;;;;;;;;;;;;;;;15.95;86.10;101462.41;5049812;28;19932;-52
2021/09/14 08:13:34;;;;;;;;;;;;;;;16.11;83.93;101466.50;5048211;28;19959;-53
2021/09/14 08:16:01;;;;;;;;;;;;;;;16.15;83.87;101478.56;5049891;28;19925;-52
2021/09/14 08:18:27;;;;;;;;;;;;;;;16.28;83.42;101471.31;5049501;28;19929;-52
2021/09/14 08:20:54;;;;;;;;;;;;;;;16.51;82.00;101477.44;5065190;28;20426;-53
2021/09/14 08:23:21;;;;;;;;;;;;;;;16.49;81.84;101478.53;5049129;28;19929;-52
2021/09/14 08:25:48;;;;;;;;;;;;;;;16.71;82.21;101478.50;5049154;28;19978;-45
2021/09/14 08:28:15;;;;;;;;;;;;;;;16.94;80.61;101477.59;5048247;28;19932;-51
2021/09/14 08:30:41;;;;;;;;;;;;;;;17.25;80.13;101489.19;5048390;28;19936;-51
2021/09/14 08:33:08;;;;;;;;;;;;;;;17.37;78.23;101485.50;5048157;28;19925;-52
2021/09/14 08:35:39;;;;;;;;;;;;;;;17.57;77.99;101482.97;5048354;28;19947;-50
2021/09/14 08:38:06;;;;;;;;;;;;;;;17.83;77.92;101485.22;5049314;28;19929;-51
2021/09/14 08:40:32;;;;;;;;;;;;;;;18.04;77.12;101482.56;5048468;28;20441;-53
2021/09/14 08:42:59;;;;;;;;;;;;;;;18.21;75.58;101473.94;5047970;28;20343;-53
2021/09/14 08:45:26;;;;;;;;;;;;;;;18.22;75.48;101478.28;5064449;28;19933;-54
2021/09/14 08:47:52;;;;;;;;;;;;;;;18.56;75.41;101480.63;5065269;28;19924;-43
2021/09/14 08:50:22;;;;;;;;;;;;;;;18.72;75.19;101482.75;5047760;28;19952;-42
2021/09/14 08:52:50;;;;;;;;;;;;;;;19.03;74.66;101480.03;5049155;28;19925;-53
2021/09/14 08:55:16;;;;;;;;;;;;;;;19.15;71.70;101482.53;5048939;28;20024;-51
2021/09/14 08:57:48;;;;;;;;;;;;;;;19.40;71.55;101473.97;5048600;28;20636;-52
2021/09/14 09:00:15;;;;;;;;;;;;;;;19.45;71.05;101470.03;5068068;28;19925;-53
2021/09/14 09:02:53;;;;;;;;;;;;;;;19.62;70.77;101466.63;5052452;28;19970;-51
2021/09/14 09:05:27;;;;;;;;;;;;;;;19.84;68.74;101472.63;5051636;28;19947;-50
2021/09/14 09:07:54;;;;;;;;;;;;;;;19.93;69.89;101471.75;5051480;28;19936;-49
2021/09/14 09:10:21;;;;;;;;;;;;;;;20.18;69.37;101464.03;5052055;28;19929;-53
2021/09/14 09:12:48;;;;;;;;;;;;;;;20.21;68.31;101467.28;5051029;28;19932;-52
2021/09/14 09:15:22;;;;;;;;;;;;;;;20.24;68.28;101466.97;5050774;28;20315;-51
2021/09/14 09:18:04;;;;;;;;;;;;;;;20.55;67.43;101460.47;5052310;28;20392;-51
2021/09/14 09:20:31;;;;;;;;;;;;;;;20.67;67.26;101451.25;5051641;28;19932;-53
2021/09/14 09:22:59;;;;;;;;;;;;;;;20.69;67.29;101451.13;5052311;28;19928;-48
2021/09/14 09:25:26;;;;;;;;;;;;;;;20.94;66.34;101450.38;5050383;28;19929;-53
2021/09/14 09:28:10;;;;;;;;;;;;;;;20.96;67.16;101439.53;5050763;28;20384;-51
2021/09/14 09:30:38;;;;;;;;;;;;;;;21.19;65.84;101447.06;5067588;28;19936;-52
2021/09/14 09:33:07;;;;;;;;;;;;;;;21.30;64.11;101454.84;5052195;28;19929;-52
2021/09/14 09:35:50;;;;;;;;;;;;;;;21.41;64.20;101445.72;5051740;28;20001;-52
2021/09/14 09:38:17;;;;;;;;;;;;;;;21.69;63.24;101445.59;5050923;28;19925;-50
2021/09/14 09:40:43;;;;;;;;;;;;;;;22.02;63.48;101449.28;5051857;28;19993;-54
2021/09/14 09:43:12;;;;;;;;;;;;;;;22.14;61.97;101443.63;5049638;28;19933;-52
2021/09/14 09:45:45;;;;;;;;;;;;;;;22.57;60.78;101453.31;5051902;28;19925;-51
2021/09/14 09:48:13;;;;;;;;;;;;;;;22.83;60.39;101441.63;5067472;28;19975;-52
2021/09/14 09:50:40;;;;;;;;;;;;;;;22.66;61.58;101446.16;5051810;28;19924;-50
2021/09/14 09:53:07;;;;;;;;;;;;;;;22.91;59.16;101444.31;5051984;28;20027;-49
2021/09/14 09:55:34;;;;;;;;;;;;;;;23.18;59.48;101444.16;5051252;28;19951;-49
2021/09/14 09:58:05;;;;;;;;;;;;;;;23.27;58.81;101440.47;5049741;28;20326;-50
2021/09/14 10:00:33;;;;;;;;;;;;;;;23.07;58.75;101423.84;5051651;28;19935;-50
2021/09/14 10:03:01;;;;;;;;;;;;;;;23.06;59.82;101423.03;5050372;28;19932;-51
2021/09/14 10:05:29;;;;;;;;;;;;;;;22.99;58.51;101426.53;5051178;28;19925;-50
2021/09/14 10:07:56;;;;;;;;;;;;;;;22.82;59.22;101418.50;5051809;28;20299;-49
2021/09/14 10:10:32;;;;;;;;;;;;;;;22.70;59.97;101409.97;5066265;28;19977;-50
2021/09/14 10:13:05;;;;;;;;;;;;;;;22.67;58.83;101417.50;5050095;28;19983;-51
2021/09/14 10:15:38;;;;;;;;;;;;;;;22.61;60.28;101424.34;5051202;28;19928;-52
2021/09/14 10:18:05;;;;;;;;;;;;;;;22.75;58.75;101417.50;5051544;28;20383;-52
2021/09/14 10:20:42;;;;;;;;;;;;;;;22.73;59.78;101416.84;5066548;28;19929;-54
2021/09/14 10:23:16;;;;;;;;;;;;;;;22.58;60.63;101413.97;5051042;28;19971;-50
2021/09/14 10:25:46;;;;;;;;;;;;;;;22.77;61.27;101419.00;5051118;28;20403;-50
2021/09/14 10:28:13;;;;;;;;;;;;;;;22.65;60.36;101417.66;5049777;28;19929;-51
2021/09/14 10:30:40;;;;;;;;;;;;;;;22.90;60.02;101415.00;5066956;28;20273;-54
2021/09/14 10:33:17;;;;;;;;;;;;;;;22.92;58.78;101413.81;5050718;28;20399;-52
2021/09/14 10:35:45;;;;;;;;;;;;;;;22.87;60.87;101401.94;5050596;28;20342;-53
2021/09/14 10:38:13;;;;;;;;;;;;;;;22.94;60.63;101402.91;5050860;28;19936;-51
2021/09/14 10:40:47;;;;;;;;;;;;;;;22.93;59.51;101398.56;5050655;28;19929;-53
2021/09/14 10:43:32;;;;;;;;;;;;;;;23.08;59.79;101393.34;5049103;28;20315;-49
2021/09/14 10:45:59;;;;;;;;;;;;;;;23.12;59.29;101392.00;5049769;28;19998;-50
2021/09/14 10:48:27;;;;;;;;;;;;;;;23.23;58.51;101396.22;5050618;28;19941;-53
2021/09/14 10:50:55;;;;;;;;;;;;;;;23.33;58.22;101396.03;5050547;28;19929;-51
2021/09/14 10:53:27;;;;;;;;;;;;;;;23.52;59.16;101386.75;5050150;28;19924;-53
2021/09/14 10:55:55;;;;;;;;;;;;;;;23.67;57.08;101390.41;5049464;28;19933;-54
2021/09/14 10:58:22;;;;;;;;;;;;;;;23.50;58.78;101386.94;5049238;28;20455;-54
2021/09/14 11:00:49;;;;;;;;;;;;;;;23.52;58.36;101390.28;5050566;28;19925;-49
2021/09/14 11:03:17;;;;;;;;;;;;;;;23.58;58.77;101402.19;5065551;28;19925;-49
2021/09/14 11:05:51;;;;;;;;;;;;;;;23.75;56.67;101408.31;5065185;28;19925;-50
2021/09/14 11:08:21;;;;;;;;;;;;;;;24.14;56.24;101397.59;5050393;28;19925;-50
2021/09/14 11:10:48;;;;;;;;;;;;;;;24.49;54.88;101391.88;5065479;28;19998;-51
2021/09/14 11:13:19;;;;;;;;;;;;;;;24.85;56.19;101382.38;5048782;28;20395;-44
2021/09/14 11:15:46;;;;;;;;;;;;;;;25.28;54.63;101385.34;5049840;28;20391;-50
2021/09/14 11:18:13;;;;;;;;;;;;;;;25.58;53.19;101382.69;5065175;28;19931;-50
2021/09/14 11:20:40;;;;;;;;;;;;;;;25.60;51.73;101381.44;5063878;28;19925;-43
2021/09/14 11:23:06;;;;;;;;;;;;;;;25.76;51.24;101376.91;5049545;28;19978;-45
2021/09/14 11:25:33;;;;;;;;;;;;;;;25.63;51.14;101374.84;5049817;28;19928;-45
2021/09/14 11:28:06;;;;;;;;;;;;;;;26.13;50.21;101365.13;5063856;28;19925;-48
2021/09/14 11:30:36;;;;;;;;;;;;;;;26.39;49.19;101358.34;5049637;28;19960;-44
2021/09/14 11:33:03;;;;;;;;;;;;;;;26.43;50.04;101365.03;5049809;28;19928;-48
2021/09/14 11:35:30;;;;;;;;;;;;;;;26.87;49.04;101365.03;5048983;28;19968;-43
2021/09/14 11:37:57;;;;;;;;;;;;;;;27.13;48.06;101346.34;5065096;28;19932;-48
2021/09/14 11:40:24;;;;;;;;;;;;;;;27.24;47.21;101346.81;5049211;28;19928;-47
2021/09/14 11:43:00;;;;;;;;;;;;;;;27.49;47.14;101341.78;5047968;28;19971;-47
2021/09/14 11:45:29;;;;;;;;;;;;;;;27.19;44.78;101333.91;5049873;28;19939;-47
2021/09/14 11:47:56;;;;;;;;;;;;;;;27.10;46.22;101337.78;5050225;28;20497;-46
2021/09/14 11:50:37;;;;;;;;;;;;;;;26.85;45.74;101340.13;5049865;28;19975;-42
2021/09/14 11:53:03;;;;;;;;;;;;;;;27.09;45.06;101323.47;5049718;28;19935;-46
2021/09/14 11:55:30;;;;;;;;;;;;;;;27.20;45.51;101332.88;5049743;28;19925;-48
2021/09/14 11:57:57;;;;;;;;;;;;;;;27.21;44.81;101342.63;5048433;28;19929;-44
2021/09/14 12:00:40;;;;;;;;;;;;;;;27.13;44.81;101334.69;5065035;28;20271;-47
2021/09/14 12:03:07;;;;;;;;;;;;;;;27.43;44.79;101332.63;5064814;28;19925;-49
2021/09/14 12:05:34;;;;;;;;;;;;;;;27.53;45.50;101328.69;5049765;28;19935;-47
2021/09/14 12:08:01;;;;;;;;;;;;;;;27.78;43.49;101318.22;5048767;28;19978;-47
2021/09/14 12:10:28;;;;;;;;;;;;;;;28.25;42.68;101321.88;5049506;28;19925;-46
2021/09/14 12:12:55;;;;;;;;;;;;;;;27.86;44.06;101315.31;5048393;28;19948;-47
2021/09/14 12:15:28;;;;;;;;;;;;;;;28.45;42.67;101308.38;5048335;28;20392;-46
2021/09/14 12:18:02;;;;;;;;;;;;;;;28.89;41.42;101310.66;5049719;28;19929;-47
2021/09/14 12:20:29;;;;;;;;;;;;;;;28.99;40.42;101313.78;5048825;28;19955;-45
2021/09/14 12:22:56;;;;;;;;;;;;;;;29.38;41.90;101311.19;5048023;28;19928;-48
2021/09/14 12:25:22;;;;;;;;;;;;;;;29.47;41.37;101310.72;5049409;28;19929;-54
2021/09/14 12:27:49;;;;;;;;;;;;;;;29.72;40.52;101314.59;5046646;28;20544;-53
2021/09/14 12:30:15;;;;;;;;;;;;;;;29.46;40.15;101313.66;5049367;28;19928;-53
2021/09/14 12:32:42;;;;;;;;;;;;;;;29.44;40.29;101305.75;5050720;28;20277;-53
2021/09/14 12:35:09;;;;;;;;;;;;;;;29.59;39.58;101305.47;5052844;28;19925;-54
2021/09/14 12:37:35;;;;;;;;;;;;;;;29.16;40.40;101304.16;5052171;28;19932;-49
2021/09/14 12:40:02;;;;;;;;;;;;;;;29.05;40.07;101290.44;5053229;28;19929;-51
2021/09/14 12:42:29;;;;;;;;;;;;;;;28.78;40.52;101304.88;5051465;28;19935;-52
2021/09/14 12:44:59;;;;;;;;;;;;;;;28.82;41.80;101303.41;5053172;28;19971;-52
2021/09/14 12:47:25;;;;;;;;;;;;;;;29.02;42.25;101297.09;5052952;28;19932;-50
2021/09/14 12:49:52;;;;;;;;;;;;;;;29.03;41.72;101300.63;5051739;28;19931;-53
2021/09/14 12:52:19;;;;;;;;;;;;;;;28.79;43.32;101305.69;5051335;28;19929;-54
2021/09/14 12:55:06;;;;;;;;;;;;;;;29.07;41.79;101300.03;5052955;28;19932;-53
2021/09/14 12:57:33;;;;;;;;;;;;;;;29.06;41.37;101302.94;5049904;28;19940;-54
2021/09/14 13:00:00;;;;;;;;;;;;;;;29.16;40.68;101303.31;5053048;28;19928;-54
2021/09/14 13:02:27;;;;;;;;;;;;;;;28.99;40.58;101292.94;5052571;28;19935;-54
2021/09/14 13:04:54;;;;;;;;;;;;;;;28.84;42.05;101298.59;5051416;28;20346;-53
2021/09/14 13:07:21;;;;;;;;;;;;;;;29.08;42.07;101301.69;5052485;28;19925;-55
2021/09/14 13:09:47;;;;;;;;;;;;;;;29.41;41.96;101298.06;5052468;28;19971;-53
2021/09/14 13:12:21;;;;;;;;;;;;;;;29.25;41.39;101290.41;5051200;28;19936;-54
2021/09/14 13:17:33;;;;;;;;;;;;;;;29.07;41.89;101283.78;5052485;28;20698;-51
2021/09/14 13:20:00;;;;;;;;;;;;;;;28.73;42.15;101287.56;5067633;28;19932;-53
2021/09/14 13:22:27;;;;;;;;;;;;;;;28.50;42.86;101284.22;5067639;28;20019;-53
2021/09/14 13:24:54;;;;;;;;;;;;;;;28.43;44.34;101275.31;5052947;28;20395;-54
2021/09/14 13:27:21;;;;;;;;;;;;;;;28.07;44.72;101278.41;5066037;28;19929;-50
2021/09/14 13:29:48;;;;;;;;;;;;;;;27.89;43.21;101274.38;5052761;28;19936;-53
2021/09/14 13:32:14;;;;;;;;;;;;;;;27.71;45.07;101279.53;5052338;28;19925;-52
2021/09/14 13:34:41;;;;;;;;;;;;;;;27.57;44.87;101276.78;5052350;28;20368;-50
2021/09/14 13:37:07;;;;;;;;;;;;;;;27.33;45.36;101276.25;5067433;28;19928;-52